Time;durP1;ratioP1;P1;durP2;ratioP2;P2;SDS_P1;SDS_P2;PMS_P1;PMS_P2;Temp;Humidity;BMP_temperature;BMP_pressure;BME280_temperature;BME280_humidity;BME280_pressure;Samples;Min_cycle;Max_cycle;Signal;HPM_P1;HPM_P2
2023/01/28 00:00:41;;;;;;;4.27;3.87;;;;;;;;;;4991197;28;20335;-56
2023/01/28 00:03:08;;;;;;;4.23;3.83;;;;;;;;;;4994364;28;20206;-54
2023/01/28 00:05:37;;;;;;;4.50;4.10;;;;;;;;;;4998738;28;20308;-52
2023/01/28 00:08:05;;;;;;;5.43;4.00;;;;;;;;;;4994708;28;20201;-50
2023/01/28 00:10:32;;;;;;;5.00;4.07;;;;;;;;;;4997283;28;20201;-56
2023/01/28 00:12:59;;;;;;;4.20;3.80;;;;;;;;;;4994583;28;20205;-54
2023/01/28 00:15:26;;;;;;;4.07;3.77;;;;;;;;;;5001881;28;20232;-53
2023/01/28 00:17:55;;;;;;;3.83;3.53;;;;;;;;;;4999371;28;20221;-56
2023/01/28 00:20:22;;;;;;;4.00;3.70;;;;;;;;;;5001831;28;20196;-55
2023/01/28 00:22:49;;;;;;;3.93;3.63;;;;;;;;;;5002369;28;20506;-54
2023/01/28 00:25:18;;;;;;;4.30;3.90;;;;;;;;;;4995572;28;20208;-51
2023/01/28 00:27:46;;;;;;;4.20;3.90;;;;;;;;;;4992920;28;20221;-54
2023/01/28 00:30:13;;;;;;;4.40;4.00;;;;;;;;;;5001184;28;20385;-54
2023/01/28 00:32:40;;;;;;;4.80;4.40;;;;;;;;;;4998185;28;20413;-52
2023/01/28 00:35:10;;;;;;;5.10;4.60;;;;;;;;;;4996740;28;20529;-54
2023/01/28 00:37:37;;;;;;;4.67;4.27;;;;;;;;;;4995319;28;20221;-55
2023/01/28 00:40:05;;;;;;;4.57;4.10;;;;;;;;;;5001420;28;20205;-53
2023/01/28 00:42:32;;;;;;;4.80;4.40;;;;;;;;;;4991842;28;20197;-55
2023/01/28 00:44:59;;;;;;;4.20;3.90;;;;;;;;;;5000531;28;20369;-52
2023/01/28 00:47:26;;;;;;;4.43;4.03;;;;;;;;;;5001273;28;20387;-52
2023/01/28 00:49:54;;;;;;;5.23;4.73;;;;;;;;;;5001939;28;20211;-56
2023/01/28 00:52:22;;;;;;;5.00;4.50;;;;;;;;;;4999754;28;20373;-56
2023/01/28 00:54:49;;;;;;;5.47;4.97;;;;;;;;;;5002106;28;20426;-51
2023/01/28 00:57:16;;;;;;;5.20;4.80;;;;;;;;;;5001256;28;20488;-55
2023/01/28 00:59:44;;;;;;;5.17;4.73;;;;;;;;;;5001084;28;20205;-53
2023/01/28 01:02:14;;;;;;;4.47;4.07;;;;;;;;;;5000780;28;20237;-57
2023/01/28 01:04:53;;;;;;;4.60;4.20;;;;;;;;;;4997115;28;20205;-55
2023/01/28 01:07:20;;;;;;;4.57;4.17;;;;;;;;;;4998810;28;20201;-51
2023/01/28 01:09:49;;;;;;;4.97;4.57;;;;;;;;;;4997231;28;20295;-57
2023/01/28 01:12:16;;;;;;;4.80;4.40;;;;;;;;;;4994780;28;20193;-56
2023/01/28 01:14:43;;;;;;;4.83;4.33;;;;;;;;;;4995676;28;20236;-54
2023/01/28 01:17:10;;;;;;;5.80;4.73;;;;;;;;;;4997063;28;20343;-57
2023/01/28 01:19:38;;;;;;;4.47;4.07;;;;;;;;;;4997060;28;20228;-56
2023/01/28 01:22:05;;;;;;;4.17;3.83;;;;;;;;;;4998476;28;20268;-55
2023/01/28 01:24:32;;;;;;;3.93;3.63;;;;;;;;;;4996231;28;20205;-51
2023/01/28 01:27:01;;;;;;;4.30;4.00;;;;;;;;;;4998746;28;20474;-55
2023/01/28 01:29:28;;;;;;;4.07;3.77;;;;;;;;;;5001378;28;20229;-55
2023/01/28 01:31:55;;;;;;;4.40;4.00;;;;;;;;;;5000884;28;20201;-55
2023/01/28 01:34:23;;;;;;;4.20;3.80;;;;;;;;;;5000785;28;20204;-51
2023/01/28 01:36:50;;;;;;;4.63;4.23;;;;;;;;;;4997073;28;20596;-57
2023/01/28 01:39:17;;;;;;;4.40;4.00;;;;;;;;;;5000331;28;20215;-55
2023/01/28 01:41:44;;;;;;;4.97;4.57;;;;;;;;;;4999570;28;20217;-55
2023/01/28 01:44:26;;;;;;;4.60;4.20;;;;;;;;;;4996881;28;20193;-53
2023/01/28 01:46:55;;;;;;;4.53;4.13;;;;;;;;;;4998642;28;20211;-53
2023/01/28 01:49:23;;;;;;;4.30;3.90;;;;;;;;;;4994705;28;20209;-54
2023/01/28 01:51:52;;;;;;;4.80;4.33;;;;;;;;;;4993526;28;20208;-54
2023/01/28 01:54:19;;;;;;;4.53;4.13;;;;;;;;;;4997172;28;20255;-54
2023/01/28 01:56:48;;;;;;;4.00;3.60;;;;;;;;;;4998667;28;20312;-53
2023/01/28 01:59:17;;;;;;;4.20;3.80;;;;;;;;;;4997917;28;20197;-55
2023/01/28 02:01:45;;;;;;;4.43;4.03;;;;;;;;;;4999164;28;20210;-55
2023/01/28 02:04:16;;;;;;;4.90;3.70;;;;;;;;;;4998372;28;20207;-53
2023/01/28 02:06:43;;;;;;;4.60;4.20;;;;;;;;;;4998425;28;20216;-56
2023/01/28 02:09:22;;;;;;;4.97;3.87;;;;;;;;;;4995907;28;20205;-55
2023/01/28 02:11:50;;;;;;;4.50;4.10;;;;;;;;;;4997654;28;20197;-57
2023/01/28 02:14:17;;;;;;;4.40;4.00;;;;;;;;;;4997248;28;20225;-52
2023/01/28 02:16:44;;;;;;;4.33;4.03;;;;;;;;;;4993563;28;20229;-54
2023/01/28 02:19:13;;;;;;;4.70;4.30;;;;;;;;;;4995439;28;20208;-56
2023/01/28 02:21:55;;;;;;;4.70;4.30;;;;;;;;;;4999022;28;20208;-51
2023/01/28 02:24:43;;;;;;;4.50;4.10;;;;;;;;;;4998000;28;20198;-55
2023/01/28 02:27:18;;;;;;;3.90;3.60;;;;;;;;;;4974445;28;20280;-53
2023/01/28 02:29:50;;;;;;;4.30;3.90;;;;;;;;;;4994334;28;20213;-53
2023/01/28 02:32:20;;;;;;;5.33;3.80;;;;;;;;;;4998808;28;20207;-54
2023/01/28 02:34:48;;;;;;;4.10;3.80;;;;;;;;;;4996981;28;20262;-51
2023/01/28 02:37:18;;;;;;;4.30;3.90;;;;;;;;;;4996452;28;20219;-56
2023/01/28 02:39:48;;;;;;;3.63;3.33;;;;;;;;;;4998786;28;20227;-57
2023/01/28 02:42:18;;;;;;;4.00;3.70;;;;;;;;;;4997413;28;20211;-54
2023/01/28 02:44:46;;;;;;;4.00;3.70;;;;;;;;;;4995161;28;20206;-56
2023/01/28 02:50:01;;;;;;;3.90;3.60;;;;;;;;;;4993934;28;20335;-57
2023/01/28 02:55:23;;;;;;;3.47;3.20;;;;;;;;;;4996552;28;20318;-57
2023/01/28 02:57:56;;;;;;;4.20;3.80;;;;;;;;;;4999624;28;20229;-56
2023/01/28 03:00:27;;;;;;;4.50;3.90;;;;;;;;;;4996557;28;20224;-57
2023/01/28 03:02:59;;;;;;;4.80;3.93;;;;;;;;;;4997210;28;20288;-57
2023/01/28 03:05:28;;;;;;;4.17;3.77;;;;;;;;;;4999173;28;20201;-56
2023/01/28 03:07:55;;;;;;;3.73;3.43;;;;;;;;;;4997536;28;20204;-56
2023/01/28 03:10:24;;;;;;;4.50;4.10;;;;;;;;;;4997698;28;20205;-56
2023/01/28 03:37:52;;;;;;;3.80;3.50;;;;;;;;;;4997840;28;20451;-56
2023/01/28 03:40:19;;;;;;;4.40;4.00;;;;;;;;;;4997544;28;20396;-56
2023/01/28 03:42:47;;;;;;;4.37;3.73;;;;;;;;;;4996189;28;20201;-55
2023/01/28 03:45:14;;;;;;;4.50;4.10;;;;;;;;;;4999637;28;20610;-57
2023/01/28 03:47:43;;;;;;;4.30;3.97;;;;;;;;;;4996866;28;20202;-57
2023/01/28 03:50:11;;;;;;;4.53;4.13;;;;;;;;;;4997251;28;20282;-55
2023/01/28 03:52:38;;;;;;;4.73;4.13;;;;;;;;;;4993831;28;20280;-54
2023/01/28 03:55:12;;;;;;;5.20;4.70;;;;;;;;;;4995455;28;20200;-56
2023/01/28 03:57:40;;;;;;;4.30;3.90;;;;;;;;;;4993943;28;20239;-56
2023/01/28 04:00:09;;;;;;;5.57;4.00;;;;;;;;;;4995641;28;20207;-53
2023/01/28 04:02:38;;;;;;;5.27;4.00;;;;;;;;;;4998832;28;20204;-55
2023/01/28 04:05:11;;;;;;;4.30;3.90;;;;;;;;;;4997410;28;20251;-55
2023/01/28 04:07:38;;;;;;;4.33;4.03;;;;;;;;;;4997697;28;20227;-57
2023/01/28 04:10:07;;;;;;;3.90;3.60;;;;;;;;;;4994362;28;20213;-57
2023/01/28 04:12:36;;;;;;;4.50;4.07;;;;;;;;;;4995251;28;20197;-58
2023/01/28 04:15:14;;;;;;;3.80;3.50;;;;;;;;;;4996600;28;20232;-55
2023/01/28 04:17:41;;;;;;;4.30;3.90;;;;;;;;;;4992920;28;20303;-57
2023/01/28 04:20:11;;;;;;;3.87;3.57;;;;;;;;;;4996688;28;20403;-55
2023/01/28 04:22:38;;;;;;;4.10;3.73;;;;;;;;;;4994529;28;20209;-57
2023/01/28 04:25:05;;;;;;;4.00;3.70;;;;;;;;;;4996567;28;20208;-55
2023/01/28 04:27:32;;;;;;;4.00;3.70;;;;;;;;;;4994757;28;20399;-54
2023/01/28 04:30:00;;;;;;;4.70;3.80;;;;;;;;;;4996641;28;20213;-56
2023/01/28 04:32:27;;;;;;;4.20;3.80;;;;;;;;;;4996549;28;20204;-57
2023/01/28 04:34:54;;;;;;;4.47;4.07;;;;;;;;;;4992055;28;20429;-58
2023/01/28 04:37:22;;;;;;;4.57;4.17;;;;;;;;;;4996043;28;20232;-57
2023/01/28 04:39:50;;;;;;;4.00;3.70;;;;;;;;;;4996010;28;20205;-55
2023/01/28 04:42:17;;;;;;;4.07;3.67;;;;;;;;;;4993505;28;20291;-57
2023/01/28 04:44:44;;;;;;;3.70;3.40;;;;;;;;;;4998674;28;20231;-54
2023/01/28 04:47:11;;;;;;;4.10;3.67;;;;;;;;;;4993644;28;20285;-57
2023/01/28 04:49:38;;;;;;;4.23;3.83;;;;;;;;;;4991796;28;20197;-57
2023/01/28 04:52:06;;;;;;;4.00;3.70;;;;;;;;;;4995140;28;20292;-57
2023/01/28 04:54:34;;;;;;;4.00;3.70;;;;;;;;;;4995216;28;20207;-54
2023/01/28 04:57:01;;;;;;;4.07;3.73;;;;;;;;;;4993568;28;20199;-55
2023/01/28 04:59:29;;;;;;;4.00;3.60;;;;;;;;;;4993640;28;20253;-56
2023/01/28 05:01:56;;;;;;;3.87;3.57;;;;;;;;;;4997412;28;20300;-56
2023/01/28 05:04:23;;;;;;;3.50;3.20;;;;;;;;;;5002537;28;20438;-56
2023/01/28 05:06:50;;;;;;;4.23;3.83;;;;;;;;;;4996500;28;20201;-53
2023/01/28 05:09:18;;;;;;;3.87;3.57;;;;;;;;;;4998889;28;20200;-57
2023/01/28 05:11:46;;;;;;;3.97;3.57;;;;;;;;;;4998913;28;20324;-57
2023/01/28 05:14:13;;;;;;;3.80;3.50;;;;;;;;;;4998338;28;20228;-57
2023/01/28 05:16:40;;;;;;;3.60;3.30;;;;;;;;;;4994875;28;20211;-57
2023/01/28 05:19:08;;;;;;;3.63;3.33;;;;;;;;;;4998473;28;20211;-56
2023/01/28 05:21:35;;;;;;;3.40;3.10;;;;;;;;;;4995939;28;20304;-56
2023/01/28 05:24:02;;;;;;;3.87;3.57;;;;;;;;;;4997695;28;20219;-57
2023/01/28 05:26:29;;;;;;;4.13;3.73;;;;;;;;;;4995629;28;20193;-56
2023/01/28 05:28:57;;;;;;;3.97;3.57;;;;;;;;;;5000580;28;20304;-57
2023/01/28 05:31:25;;;;;;;3.83;3.40;;;;;;;;;;4999709;28;20205;-56
2023/01/28 05:33:52;;;;;;;3.67;3.37;;;;;;;;;;4999799;28;20243;-56
2023/01/28 05:36:19;;;;;;;5.30;3.63;;;;;;;;;;5004922;28;20205;-57
2023/01/28 05:38:46;;;;;;;4.50;3.80;;;;;;;;;;5001779;28;20239;-54
2023/01/28 05:41:13;;;;;;;3.80;3.47;;;;;;;;;;5000660;28;20207;-56
2023/01/28 05:43:41;;;;;;;3.50;3.20;;;;;;;;;;5001781;28;20219;-56
2023/01/28 05:46:09;;;;;;;3.83;3.53;;;;;;;;;;4998500;28;20235;-55
2023/01/28 05:48:36;;;;;;;3.50;3.20;;;;;;;;;;4998753;28;20200;-54
2023/01/28 05:51:04;;;;;;;3.40;3.10;;;;;;;;;;4997375;28;20529;-55
2023/01/28 05:53:31;;;;;;;3.33;3.03;;;;;;;;;;4998511;28;20205;-50
2023/01/28 05:55:58;;;;;;;3.40;3.10;;;;;;;;;;5000008;28;20204;-57
2023/01/28 05:58:29;;;;;;;4.07;3.67;;;;;;;;;;4999278;28;20228;-55
2023/01/28 06:00:56;;;;;;;3.93;3.63;;;;;;;;;;4999056;28;20213;-55
2023/01/28 06:03:25;;;;;;;3.77;3.10;;;;;;;;;;5000628;28;20205;-55
2023/01/28 06:05:52;;;;;;;3.80;3.40;;;;;;;;;;5001018;28;20216;-58
2023/01/28 06:08:19;;;;;;;3.50;3.20;;;;;;;;;;5001966;28;20229;-54
2023/01/28 06:10:47;;;;;;;4.03;3.13;;;;;;;;;;4998265;28;20211;-54
2023/01/28 06:13:14;;;;;;;2.77;2.57;;;;;;;;;;5000307;28;20222;-58
2023/01/28 06:15:41;;;;;;;3.87;3.53;;;;;;;;;;5004910;23;20233;-84
2023/01/28 06:18:08;;;;;;;3.60;3.30;;;;;;;;;;4982239;28;20226;-84
2023/01/28 06:20:37;;;;;;;3.77;3.33;;;;;;;;;;4980928;28;20223;-84
2023/01/28 06:23:04;;;;;;;3.93;3.20;;;;;;;;;;4980398;28;20207;-84
2023/01/28 06:25:31;;;;;;;4.07;3.33;;;;;;;;;;4979323;28;20312;-82
2023/01/28 06:27:58;;;;;;;3.70;3.40;;;;;;;;;;4981528;28;20296;-83
2023/01/28 06:30:25;;;;;;;4.07;3.67;;;;;;;;;;4982606;28;20201;-82
2023/01/28 06:32:54;;;;;;;4.40;3.90;;;;;;;;;;4982444;28;20209;-84
2023/01/28 06:35:22;;;;;;;3.80;3.50;;;;;;;;;;4982981;28;20274;-84
2023/01/28 06:37:51;;;;;;;4.40;3.73;;;;;;;;;;4984345;28;20231;-81
2023/01/28 06:40:18;;;;;;;4.80;4.00;;;;;;;;;;4980759;28;20194;-82
2023/01/28 06:42:46;;;;;;;4.33;4.00;;;;;;;;;;4980820;28;20261;-83
2023/01/28 06:45:13;;;;;;;4.30;3.90;;;;;;;;;;4984358;28;20293;-83
2023/01/28 06:47:40;;;;;;;3.90;3.60;;;;;;;;;;4986591;28;20340;-83
2023/01/28 06:50:08;;;;;;;3.83;3.53;;;;;;;;;;4985671;28;20221;-83
2023/01/28 06:52:35;;;;;;;4.13;3.73;;;;;;;;;;4985430;28;20208;-85
2023/01/28 06:55:04;;;;;;;4.10;3.70;;;;;;;;;;4977784;28;20202;-83
2023/01/28 06:57:31;;;;;;;4.60;3.97;;;;;;;;;;4978778;28;20220;-83
2023/01/28 06:59:58;;;;;;;4.30;3.87;;;;;;;;;;4978370;28;20272;-86
2023/01/28 07:02:25;;;;;;;4.50;4.10;;;;;;;;;;4980891;28;20193;-83
2023/01/28 07:04:52;;;;;;;4.20;3.80;;;;;;;;;;4982988;28;20290;-81
2023/01/28 07:07:20;;;;;;;4.40;4.00;;;;;;;;;;4984934;28;20292;-81
2023/01/28 07:09:47;;;;;;;5.53;4.47;;;;;;;;;;4984556;28;20440;-84
2023/01/28 07:12:15;;;;;;;5.13;4.63;;;;;;;;;;4981373;28;20244;-82
2023/01/28 07:14:43;;;;;;;4.33;3.93;;;;;;;;;;4985847;28;20217;-83
2023/01/28 07:17:11;;;;;;;5.10;4.60;;;;;;;;;;4981573;28;20226;-82
2023/01/28 07:19:38;;;;;;;4.57;4.17;;;;;;;;;;4982770;28;20228;-83
2023/01/28 07:22:05;;;;;;;4.53;4.13;;;;;;;;;;4979721;28;20205;-85
2023/01/28 07:24:33;;;;;;;5.13;4.60;;;;;;;;;;4987061;28;20296;-81
2023/01/28 07:27:01;;;;;;;6.50;5.57;;;;;;;;;;4977338;28;20213;-84
2023/01/28 07:29:29;;;;;;;5.93;4.97;;;;;;;;;;4975044;28;20214;-82
2023/01/28 07:31:56;;;;;;;5.90;5.30;;;;;;;;;;4978614;28;20205;-84
2023/01/28 07:34:24;;;;;;;5.70;5.20;;;;;;;;;;4976976;28;20208;-86
2023/01/28 07:36:51;;;;;;;6.40;5.80;;;;;;;;;;4979904;28;20201;-84
2023/01/28 07:39:18;;;;;;;6.70;5.87;;;;;;;;;;4982133;28;20225;-86
2023/01/28 07:41:46;;;;;;;5.73;5.20;;;;;;;;;;4972530;28;20208;-85
2023/01/28 07:44:13;;;;;;;7.47;6.17;;;;;;;;;;4973354;28;20209;-82
2023/01/28 07:46:42;;;;;;;6.90;6.03;;;;;;;;;;4975277;28;20193;-83
2023/01/28 07:49:09;;;;;;;5.83;5.30;;;;;;;;;;4973977;28;20219;-84
2023/01/28 07:51:36;;;;;;;6.83;6.13;;;;;;;;;;4977849;28;20221;-83
2023/01/28 07:54:03;;;;;;;5.83;5.27;;;;;;;;;;4976152;28;20296;-83
2023/01/28 07:56:31;;;;;;;5.70;5.20;;;;;;;;;;4976305;28;20201;-85
2023/01/28 07:58:59;;;;;;;6.53;5.47;;;;;;;;;;4968805;28;20210;-86
2023/01/28 08:01:26;;;;;;;4.97;4.57;;;;;;;;;;4977807;28;20292;-82
2023/01/28 08:03:55;;;;;;;5.53;5.03;;;;;;;;;;4974712;28;20372;-86
2023/01/28 08:06:23;;;;;;;5.53;5.03;;;;;;;;;;4975767;28;20205;-85
2023/01/28 08:08:50;;;;;;;5.77;5.27;;;;;;;;;;4973810;28;20269;-83
2023/01/28 08:11:17;;;;;;;5.60;5.10;;;;;;;;;;4978256;28;20316;-86
2023/01/28 08:13:44;;;;;;;6.23;5.47;;;;;;;;;;4976963;28;20308;-83
2023/01/28 08:16:12;;;;;;;6.37;5.80;;;;;;;;;;4978284;28;20229;-85
2023/01/28 08:18:39;;;;;;;6.03;5.53;;;;;;;;;;4977025;28;20229;-83
2023/01/28 08:21:07;;;;;;;5.63;5.10;;;;;;;;;;4976300;28;20229;-82
2023/01/28 08:23:35;;;;;;;5.77;5.27;;;;;;;;;;4976766;28;20269;-83
2023/01/28 08:26:02;;;;;;;5.83;5.30;;;;;;;;;;4976063;28;20292;-82
2023/01/28 08:28:29;;;;;;;5.87;5.33;;;;;;;;;;4975700;28;20280;-82
2023/01/28 08:30:56;;;;;;;4.93;4.53;;;;;;;;;;4976457;28;20294;-82
2023/01/28 08:33:23;;;;;;;6.97;5.60;;;;;;;;;;4978275;28;20182;-85
2023/01/28 08:35:50;;;;;;;5.90;5.30;;;;;;;;;;4973587;28;20201;-84
2023/01/28 08:38:19;;;;;;;5.53;5.03;;;;;;;;;;4982511;28;20197;-83
2023/01/28 08:40:49;;;;;;;5.37;4.90;;;;;;;;;;4981282;28;20201;-83
2023/01/28 08:43:16;;;;;;;6.80;6.20;;;;;;;;;;4978922;28;20209;-86
2023/01/28 08:45:43;;;;;;;6.93;6.33;;;;;;;;;;4978567;28;20206;-81
2023/01/28 08:48:12;;;;;;;6.87;6.17;;;;;;;;;;4981298;28;20197;-85
2023/01/28 08:50:40;;;;;;;6.53;5.93;;;;;;;;;;4976333;28;20213;-85
2023/01/28 08:53:08;;;;;;;7.97;6.33;;;;;;;;;;4983335;28;20205;-81
2023/01/28 08:55:36;;;;;;;5.60;5.10;;;;;;;;;;4983171;28;20205;-86
2023/01/28 08:58:04;;;;;;;5.87;5.30;;;;;;;;;;4981998;28;20264;-83
2023/01/28 09:00:32;;;;;;;6.07;5.43;;;;;;;;;;4982107;28;20226;-86
2023/01/28 09:02:59;;;;;;;6.50;5.90;;;;;;;;;;4982871;28;20213;-85
2023/01/28 09:05:26;;;;;;;6.43;5.83;;;;;;;;;;4982487;28;20224;-86
2023/01/28 09:07:53;;;;;;;7.47;6.23;;;;;;;;;;4982679;28;20201;-84
2023/01/28 09:10:20;;;;;;;5.90;5.33;;;;;;;;;;4980873;28;20301;-86
2023/01/28 09:12:49;;;;;;;5.83;5.33;;;;;;;;;;4982741;28;20224;-85
2023/01/28 09:15:16;;;;;;;5.10;4.60;;;;;;;;;;4979961;28;20305;-86
2023/01/28 09:17:43;;;;;;;4.47;3.93;;;;;;;;;;4973057;28;20225;-83
2023/01/28 09:20:12;;;;;;;5.43;4.93;;;;;;;;;;4980275;28;20213;-86
2023/01/28 09:22:39;;;;;;;6.43;5.50;;;;;;;;;;4980110;28;20201;-83
2023/01/28 09:25:07;;;;;;;5.37;4.87;;;;;;;;;;4983185;28;20197;-84
2023/01/28 09:27:34;;;;;;;5.53;5.00;;;;;;;;;;4981631;28;20217;-82
2023/01/28 09:30:03;;;;;;;5.50;5.00;;;;;;;;;;4981247;28;20293;-84
2023/01/28 09:32:30;;;;;;;5.60;5.03;;;;;;;;;;4980970;28;20248;-83
2023/01/28 09:34:58;;;;;;;6.43;4.80;;;;;;;;;;4980022;28;20225;-82
2023/01/28 09:37:25;;;;;;;5.90;5.30;;;;;;;;;;4981358;28;20202;-81
2023/01/28 09:39:52;;;;;;;5.60;5.10;;;;;;;;;;4981260;28;20225;-82
2023/01/28 09:42:40;;;;;;;5.73;5.23;;;;;;;;;;4980191;28;20197;-82
2023/01/28 09:45:14;;;;;;;5.63;5.13;;;;;;;;;;4978811;28;20288;-81
2023/01/28 09:47:42;;;;;;;6.00;5.40;;;;;;;;;;4979671;28;20197;-83
2023/01/28 09:50:12;;;;;;;5.93;5.43;;;;;;;;;;4981417;28;20269;-84
2023/01/28 09:52:41;;;;;;;6.40;5.80;;;;;;;;;;4981272;28;20197;-85
2023/01/28 09:55:14;;;;;;;5.73;5.20;;;;;;;;;;4980751;28;20214;-82
2023/01/28 09:57:44;;;;;;;5.47;4.97;;;;;;;;;;4981440;28;20257;-82
2023/01/28 10:00:15;;;;;;;6.50;4.90;;;;;;;;;;4981801;28;20316;-83
2023/01/28 10:02:50;;;;;;;5.53;5.03;;;;;;;;;;4979784;28;20265;-84
2023/01/28 10:05:21;;;;;;;4.70;4.27;;;;;;;;;;4974714;28;20207;-85
2023/01/28 10:07:51;;;;;;;4.87;4.37;;;;;;;;;;4981287;28;20268;-83
2023/01/28 10:10:25;;;;;;;6.53;5.80;;;;;;;;;;4982231;28;20206;-84
2023/01/28 10:13:01;;;;;;;8.27;6.03;;;;;;;;;;4981452;28;20284;-84
2023/01/28 10:15:43;;;;;;;6.87;5.70;;;;;;;;;;4980955;28;20259;-83
2023/01/28 10:18:12;;;;;;;6.03;5.43;;;;;;;;;;4973025;28;20201;-85
2023/01/28 10:20:42;;;;;;;9.20;6.90;;;;;;;;;;4981296;28;20230;-84
2023/01/28 10:23:13;;;;;;;6.97;6.27;;;;;;;;;;4981054;28;20205;-84
2023/01/28 10:25:43;;;;;;;7.10;6.00;;;;;;;;;;4982266;28;20205;-83
2023/01/28 10:28:15;;;;;;;5.80;4.97;;;;;;;;;;4981006;28;20203;-85
2023/01/28 10:30:43;;;;;;;5.80;5.20;;;;;;;;;;4981189;28;20221;-82
2023/01/28 10:33:17;;;;;;;5.23;4.53;;;;;;;;;;4980706;28;20209;-86
2023/01/28 10:35:44;;;;;;;4.00;3.70;;;;;;;;;;4979433;28;20273;-83
2023/01/28 10:38:15;;;;;;;3.80;3.50;;;;;;;;;;4977439;28;20221;-85
2023/01/28 10:40:42;;;;;;;4.07;3.70;;;;;;;;;;4979693;28;20244;-83
2023/01/28 10:43:09;;;;;;;3.00;2.80;;;;;;;;;;4981000;28;20205;-85
2023/01/28 10:45:39;;;;;;;3.97;3.57;;;;;;;;;;4976717;28;20265;-84
2023/01/28 10:48:08;;;;;;;3.70;3.40;;;;;;;;;;4978750;28;20220;-84
2023/01/28 10:50:37;;;;;;;3.33;3.03;;;;;;;;;;4979665;28;20215;-84
2023/01/28 10:53:05;;;;;;;3.40;3.10;;;;;;;;;;4977123;28;20202;-84
2023/01/28 10:55:48;;;;;;;3.07;2.83;;;;;;;;;;4979996;28;20218;-83
2023/01/28 10:58:18;;;;;;;3.53;3.23;;;;;;;;;;4974049;28;20212;-85
2023/01/28 11:00:45;;;;;;;4.10;3.70;;;;;;;;;;4974744;28;20320;-86
2023/01/28 11:03:18;;;;;;;4.10;3.30;;;;;;;;;;4980601;28;20210;-84
2023/01/28 11:05:53;;;;;;;3.10;2.90;;;;;;;;;;4978107;28;20205;-84
2023/01/28 11:08:20;;;;;;;3.80;3.50;;;;;;;;;;4975859;28;20220;-85
2023/01/28 11:10:48;;;;;;;3.10;2.80;;;;;;;;;;4973215;28;20292;-83
2023/01/28 11:13:17;;;;;;;3.30;2.40;;;;;;;;;;4973087;28;20209;-83
2023/01/28 11:15:48;;;;;;;2.87;2.67;;;;;;;;;;4977449;28;20316;-85
2023/01/28 11:18:17;;;;;;;3.20;2.90;;;;;;;;;;4975575;28;20198;-84
2023/01/28 11:20:50;;;;;;;3.93;3.53;;;;;;;;;;4976886;28;20217;-84
2023/01/28 11:23:22;;;;;;;4.30;3.90;;;;;;;;;;4977888;28;20209;-85
2023/01/28 11:25:50;;;;;;;5.53;3.80;;;;;;;;;;4987072;28;20198;-85
2023/01/28 11:28:19;;;;;;;3.30;3.00;;;;;;;;;;4987425;28;20212;-85
2023/01/28 11:30:51;;;;;;;3.00;2.73;;;;;;;;;;4983778;28;20227;-84
2023/01/28 11:33:19;;;;;;;5.33;4.40;;;;;;;;;;4986837;28;20280;-86
2023/01/28 11:35:53;;;;;;;3.97;3.67;;;;;;;;;;4986925;28;20206;-85
2023/01/28 11:38:23;;;;;;;3.13;2.80;;;;;;;;;;4982776;28;20201;-86
2023/01/28 11:40:52;;;;;;;3.03;2.80;;;;;;;;;;4981134;28;20222;-85
2023/01/28 11:43:19;;;;;;;3.10;2.80;;;;;;;;;;4978466;28;20204;-84
2023/01/28 11:45:50;;;;;;;2.90;2.70;;;;;;;;;;4985796;28;20209;-81
2023/01/28 11:48:25;;;;;;;3.07;2.70;;;;;;;;;;4981894;28;20201;-83
2023/01/28 11:50:57;;;;;;;2.90;2.40;;;;;;;;;;4985451;28;20378;-81
2023/01/28 11:53:40;;;;;;;2.57;2.37;;;;;;;;;;4983933;28;20237;-84
2023/01/28 11:56:19;;;;;;;3.47;3.17;;;;;;;;;;4979780;28;20204;-82
2023/01/28 11:58:50;;;;;;;2.87;2.67;;;;;;;;;;4976170;28;20240;-82
2023/01/28 12:01:21;;;;;;;3.20;2.90;;;;;;;;;;4973113;28;20347;-84
2023/01/28 12:04:03;;;;;;;3.73;3.20;;;;;;;;;;4976902;28;20234;-85
2023/01/28 12:06:40;;;;;;;2.70;2.33;;;;;;;;;;4974539;28;20185;-82
2023/01/28 12:09:14;;;;;;;2.20;2.00;;;;;;;;;;4977778;28;20197;-84
2023/01/28 12:14:37;;;;;;;2.33;2.13;;;;;;;;;;4979918;28;20204;-83
2023/01/28 12:17:15;;;;;;;1.87;1.77;;;;;;;;;;4980155;28;20225;-83
2023/01/28 12:19:49;;;;;;;1.80;1.70;;;;;;;;;;4978813;28;20220;-83
2023/01/28 12:22:33;;;;;;;1.87;1.77;;;;;;;;;;4980039;28;20193;-83
2023/01/28 12:25:09;;;;;;;1.80;1.70;;;;;;;;;;4977584;28;20197;-84
2023/01/28 12:27:44;;;;;;;1.80;1.70;;;;;;;;;;4980907;28;20197;-83
2023/01/28 12:30:19;;;;;;;1.97;1.87;;;;;;;;;;4977936;28;20237;-83
2023/01/28 12:32:57;;;;;;;1.90;1.80;;;;;;;;;;4982697;28;20207;-83
2023/01/28 12:35:35;;;;;;;2.30;2.10;;;;;;;;;;4978825;28;20208;-84
2023/01/28 12:38:08;;;;;;;2.20;1.83;;;;;;;;;;4981104;28;20232;-84
2023/01/28 12:40:46;;;;;;;2.40;2.20;;;;;;;;;;4976341;28;20229;-83
2023/01/28 12:43:16;;;;;;;2.60;2.40;;;;;;;;;;4981553;28;20201;-83
2023/01/28 12:45:45;;;;;;;3.30;3.10;;;;;;;;;;4978073;28;20202;-85
2023/01/28 12:48:14;;;;;;;3.43;3.13;;;;;;;;;;4979424;28;20197;-83
2023/01/28 12:50:44;;;;;;;28.03;20.17;;;;;;;;;;4980390;28;20288;-85
2023/01/28 12:53:18;;;;;;;9.60;8.13;;;;;;;;;;4977230;28;20206;-84
2023/01/28 12:55:48;;;;;;;11.07;8.00;;;;;;;;;;4983788;28;20207;-83
2023/01/28 12:58:19;;;;;;;6.30;5.40;;;;;;;;;;4976513;28;20205;-84
2023/01/28 13:00:49;;;;;;;4.87;4.47;;;;;;;;;;4979651;28;20289;-83
2023/01/28 13:03:19;;;;;;;3.80;3.50;;;;;;;;;;4980399;28;20202;-83
2023/01/28 13:05:49;;;;;;;3.57;3.27;;;;;;;;;;4980451;28;20212;-82
2023/01/28 13:08:20;;;;;;;2.47;2.27;;;;;;;;;;4978488;28;20198;-83
2023/01/28 13:10:47;;;;;;;3.70;3.40;;;;;;;;;;4980113;28;20212;-83
2023/01/28 13:13:19;;;;;;;6.23;5.53;;;;;;;;;;4979249;28;20202;-83
2023/01/28 13:15:46;;;;;;;5.47;3.60;;;;;;;;;;4977857;28;20354;-84
2023/01/28 13:18:29;;;;;;;3.20;2.63;;;;;;;;;;4979620;28;20208;-82
2023/01/28 13:20:56;;;;;;;4.40;3.40;;;;;;;;;;4977231;28;20313;-83
2023/01/28 13:23:24;;;;;;;3.63;3.30;;;;;;;;;;4977889;28;20288;-84
2023/01/28 13:25:53;;;;;;;3.73;3.43;;;;;;;;;;4981393;28;20201;-83
2023/01/28 13:28:28;;;;;;;4.53;4.00;;;;;;;;;;4980028;28;20273;-84
2023/01/28 13:31:02;;;;;;;6.77;6.07;;;;;;;;;;4980164;28;20289;-83
2023/01/28 13:33:31;;;;;;;2.80;2.47;;;;;;;;;;4986668;28;20228;-84
2023/01/28 13:35:58;;;;;;;3.80;3.50;;;;;;;;;;4986194;28;20209;-82
2023/01/28 13:38:26;;;;;;;3.67;3.37;;;;;;;;;;4982092;28;20193;-85
2023/01/28 13:40:58;;;;;;;6.00;4.90;;;;;;;;;;4986440;28;20308;-84
2023/01/28 13:43:29;;;;;;;5.30;4.70;;;;;;;;;;4987507;28;20217;-82
2023/01/28 13:45:57;;;;;;;3.90;3.50;;;;;;;;;;4985980;28;20213;-86
2023/01/28 13:48:28;;;;;;;5.00;3.80;;;;;;;;;;4986640;28;20288;-82
2023/01/28 13:50:56;;;;;;;2.33;2.13;;;;;;;;;;4979682;28;20245;-83
2023/01/28 13:53:29;;;;;;;2.70;2.50;;;;;;;;;;4977627;28;20228;-85
2023/01/28 13:55:58;;;;;;;2.57;2.37;;;;;;;;;;4977479;28;20205;-83
2023/01/28 13:58:41;;;;;;;2.33;2.13;;;;;;;;;;4978750;28;20194;-84
2023/01/28 14:01:24;;;;;;;2.33;2.13;;;;;;;;;;4976595;28;20236;-82
2023/01/28 14:04:09;;;;;;;2.40;2.20;;;;;;;;;;4978136;28;20390;-81
2023/01/28 14:06:52;;;;;;;2.10;1.77;;;;;;;;;;4977782;28;20201;-83
2023/01/28 14:09:29;;;;;;;2.00;1.90;;;;;;;;;;4976013;28;20201;-85
2023/01/28 14:12:11;;;;;;;1.80;1.70;;;;;;;;;;4978338;28;20202;-83
2023/01/28 14:14:59;;;;;;;2.47;2.33;;;;;;;;;;4981076;28;20205;-85
2023/01/28 14:17:34;;;;;;;2.47;2.27;;;;;;;;;;4974675;28;20249;-84
2023/01/28 14:20:02;;;;;;;2.50;2.30;;;;;;;;;;4981009;28;20201;-83
2023/01/28 14:22:29;;;;;;;3.30;2.87;;;;;;;;;;4981345;28;20237;-81
2023/01/28 14:24:58;;;;;;;7.53;5.47;;;;;;;;;;4983330;28;20197;-81
2023/01/28 14:27:27;;;;;;;4.20;3.20;;;;;;;;;;4984382;28;20201;-82
2023/01/28 14:30:03;;;;;;;2.77;2.57;;;;;;;;;;4980535;28;20236;-86
2023/01/28 14:32:32;;;;;;;3.60;3.30;;;;;;;;;;4971630;28;20300;-83
2023/01/28 14:35:02;;;;;;;2.80;2.47;;;;;;;;;;4981123;28;20214;-84
2023/01/28 14:37:30;;;;;;;3.33;2.50;;;;;;;;;;4979790;28;20225;-84
2023/01/28 14:39:58;;;;;;;3.27;2.97;;;;;;;;;;4980159;28;20261;-81
2023/01/28 14:42:27;;;;;;;4.07;3.30;;;;;;;;;;4981383;28;20284;-83
2023/01/28 14:44:58;;;;;;;3.10;2.80;;;;;;;;;;4980062;28;20198;-82
2023/01/28 14:47:33;;;;;;;3.10;2.80;;;;;;;;;;4979763;28;20284;-82
2023/01/28 14:50:06;;;;;;;2.40;2.20;;;;;;;;;;4978493;28;20300;-84
2023/01/28 14:52:44;;;;;;;4.47;2.93;;;;;;;;;;4986027;28;20284;-83
2023/01/28 14:55:19;;;;;;;2.90;2.60;;;;;;;;;;4974852;28;20273;-83
2023/01/28 14:57:48;;;;;;;2.70;2.50;;;;;;;;;;4979943;28;20201;-84
2023/01/28 15:00:18;;;;;;;3.20;3.00;;;;;;;;;;4979895;28;20202;-83
2023/01/28 15:02:45;;;;;;;3.73;3.23;;;;;;;;;;4977598;28;20297;-82
2023/01/28 15:05:16;;;;;;;3.27;2.97;;;;;;;;;;4979442;28;20197;-83
2023/01/28 15:07:45;;;;;;;4.73;4.33;;;;;;;;;;4980279;28;20241;-82
2023/01/28 15:10:16;;;;;;;5.00;4.50;;;;;;;;;;4979837;28;20197;-83
2023/01/28 15:12:46;;;;;;;3.87;3.57;;;;;;;;;;4979537;28;20273;-84
2023/01/28 15:15:18;;;;;;;3.63;3.33;;;;;;;;;;4979772;28;20205;-84
2023/01/28 15:17:45;;;;;;;4.33;3.93;;;;;;;;;;4980355;28;20288;-84
2023/01/28 15:20:17;;;;;;;5.33;4.90;;;;;;;;;;4979212;28;20316;-84
2023/01/28 15:22:45;;;;;;;4.43;4.10;;;;;;;;;;4980836;28;20201;-82
2023/01/28 15:25:16;;;;;;;4.30;3.90;;;;;;;;;;4976317;28;20292;-84
2023/01/28 15:27:43;;;;;;;4.47;4.03;;;;;;;;;;4976371;28;20225;-82
2023/01/28 15:30:19;;;;;;;7.43;5.63;;;;;;;;;;4978750;28;20197;-81